Main page
METAR-TAF:

METAR-TAF

Airports :

King Khalid International Airport

Riyadh, Saudi Arabia

latitude: 24-56N, longitude: 046-43E, elevation: 614 m

Current weather observation

The report was made 38 minutes ago, at 16:00 UTC
Wind 5 kt from the East
Temperature 30°C
Humidity 22%
Pressure 1016 hPa
Visibility 10 km or more
no clouds below 1500 m and no cumulonimbus

METAR: OERK 251600Z 08005KT CAVOK 30/06 Q1016 NOSIG

Time: 19:38 (16:38 UTC)

Forecast

The report was made 5 hours and 38 minutes ago, at 11:00 UTC
Forecast valid from 25 at 12 UTC to 26 at 18 UTC
Wind 12 kt from the West/Northwest
Visibility: 7000 m
Becoming
from 25 at 20 UTC to 25 at 22 UTC
Wind 5 kt from the East/Southeast
Visibility 10 km or more
no clouds below 1500 m and no cumulonimbus
Becoming
from 26 at 06 UTC to 26 at 08 UTC
Wind 15 kt from the Southeast
Visibility: 7000 m

TAF: OERK 251100Z 2512/2618 30012KT 7000 NSC BECMG 2520/2522 12005KT CAVOK BECMG 2606/2608 14015KT 7000 NSC

Weather observations and forecasts of more than 4000 airports (METAR and TAF reports).

The available stations are represented by yellow and red dots on the map.

Hover mouse over dot to see the name of the station.

Then click to see weather observations and forecasts.

To change the map : click on the green buttons with a black cross to zoom in, on the green button with a dash to zoom out, or on the green arrows for adjacent maps.


METAR-TAF: